Seabourn Pride — C6FR5 — position and weather

sailwx.info

Track history (hours):
 
Tides and Currents Weather Stations Pressure Air Temp Water Temp Dewpoint Dewpoint Depression Visibility Wind Speed Wind Dir Waves Ship Positions

Seabourn Pride

Operator: Cunard Seabourn

Last reported at 2017-Sep-20 21:00 UTC. Time now 2017-Sep-21 01:30 UTC.
Position N 42°60' E 006°34'.

Length 134 m; draft 5.7 m.

Type: Passenger vessel. MMSI: 311084000.

Date/timePositionNaut miles runAvg speedWind from/ knotsBaromVisibWave heightAir tempDewpointWater temp
2017-Sep-20 21:00N 42°60' E 006°34'4 7.0
2017-Sep-20 20:30N 42°58' E 006°31'5 7.1
2017-Sep-20 19:52N 42°57' E 006°25'4 9.9
2017-Sep-20 19:30N 42°56' E 006°20'18 9.4
2017-Sep-20 17:35N 43°05' E 005°58'1 9.1
2017-Sep-20 17:27N 43°05' E 005°56'2 1.1
2017-Sep-20 15:54N 43°07' E 005°56'0 0.0
2017-Sep-20 15:30N 43°07' E 005°56'0 0.0
2017-Sep-20 15:00N 43°07' E 005°56'34 2.4
2017-Sep-20 00:59N 42°49' E 005°17'510.6
2017-Sep-20 00:30N 42°48' E 005°10'510.7
2017-Sep-20 00:00N 42°47' E 005°03'510.9
2017-Sep-19 23:30N 42°46' E 004°55'711.0
2017-Sep-19 22:54N 42°45' E 004°47'511.1
2017-Sep-19 22:27N 42°44' E 004°40'511.2
2017-Sep-19 22:00N 42°43' E 004°33'711.3
2017-Sep-19 21:25N 42°42' E 004°24'142 3.2
2017-Sep-18 01:27N 40°58' E 002°14'510.4
2017-Sep-18 01:00N 40°53' E 002°14'510.5
2017-Sep-18 00:29N 40°48' E 002°15'510.2
2017-Sep-18 00:00N 40°43' E 002°15'510.1
2017-Sep-17 23:30N 40°38' E 002°15'510.1
2017-Sep-17 23:00N 40°33' E 002°15'510.1
2017-Sep-17 22:30N 40°28' E 002°15'510.0
2017-Sep-17 22:00N 40°23' E 002°15'5 9.9
2017-Sep-17 21:30N 40°18' E 002°15'510.1
2017-Sep-17 21:00N 40°13' E 002°16'510.0
2017-Sep-17 20:30N 40°08' E 002°16'510.0
2017-Sep-17 20:00N 40°03' E 002°16'510.1
2017-Sep-17 19:30N 39°58' E 002°16'510.9
2017-Sep-17 19:01N 39°52' E 002°16'611.1
2017-Sep-17 18:30N 39°47' E 002°16'611.4
2017-Sep-17 18:01N 39°41' E 002°16'611.6
2017-Sep-17 17:30N 39°35' E 002°17'510.8
2017-Sep-17 17:01N 39°31' E 002°21'611.2
2017-Sep-17 16:30N 39°27' E 002°26'5 9.7
2017-Sep-17 16:00N 39°27' E 002°33'510.7
2017-Sep-17 15:30N 39°31' E 002°37'2 4.2
2017-Sep-17 14:58N 39°33' E 002°38'0 0.0
2017-Sep-17 14:25N 39°33' E 002°38'0 0.0
2017-Sep-17 13:58N 39°33' E 002°38'0 0.0
2017-Sep-17 13:30N 39°33' E 002°38'0 0.0
2017-Sep-17 13:00N 39°33' E 002°38'0 0.0
2017-Sep-17 12:30N 39°33' E 002°38'0 0.0
2017-Sep-17 12:00N 39°33' E 002°38'0 0.0
2017-Sep-17 11:30N 39°33' E 002°38'0 0.0
2017-Sep-17 11:00N 39°33' E 002°38'0 0.0
2017-Sep-17 10:30N 39°33' E 002°38'0 0.0
2017-Sep-17 10:00N 39°33' E 002°38'0 0.0
2017-Sep-17 09:30N 39°33' E 002°38'0 0.0
2017-Sep-17 09:00N 39°33' E 002°38'0 0.0
2017-Sep-17 08:30N 39°33' E 002°38'0 0.0
2017-Sep-17 08:00N 39°33' E 002°38'0 0.0
2017-Sep-17 07:31N 39°33' E 002°38'0 0.0
2017-Sep-17 07:00N 39°33' E 002°38'0 0.0
2017-Sep-17 06:30N 39°33' E 002°38'0 0.0
2017-Sep-17 06:00N 39°33' E 002°38'0 0.0
2017-Sep-17 05:30N 39°33' E 002°38'1 2.0
2017-Sep-17 05:00N 39°32' E 002°39'4 8.3
2017-Sep-17 04:30N 39°28' E 002°37'4 8.8
2017-Sep-17 04:00N 39°25' E 002°34'5 9.2
2017-Sep-17 03:30N 39°21' E 002°30'5 9.2
2017-Sep-17 03:00N 39°17' E 002°27'5 9.4
2017-Sep-17 02:30N 39°14' E 002°23'5 9.4
2017-Sep-17 02:00N 39°10' E 002°19'5 9.8
2017-Sep-17 01:29N 39°06' E 002°15'5 9.8
2017-Sep-17 00:59N 39°02' E 002°11'5 9.8
2017-Sep-17 00:30N 38°59' E 002°07'5 9.6
2017-Sep-17 00:00N 38°55' E 002°03'5 9.4
2017-Sep-16 23:30N 38°51' E 001°59'5 9.5
2017-Sep-16 22:58N 38°47' E 001°55'15611.3
2017-Sep-16 09:06N 37°11' W 000°42'111.5
2017-Sep-16 09:00N 37°11' W 000°43'  
2017-Sep-13 20:36N 36°06' W 005°18'7 0.7
2017-Sep-13 10:18N 36°01' W 005°24'3 9.3
2017-Sep-13 09:58N 35°58' W 005°26'130 3.5
2017-Sep-11 20:36N 36°52' W 007°52'410.7
2017-Sep-11 20:12N 36°53' W 007°58'210.7
2017-Sep-11 19:58N 36°53' W 008°01'710.4
2017-Sep-11 19:19N 36°56' W 008°08'610.4
2017-Sep-11 18:43N 36°59' W 008°15'3 9.4
2017-Sep-11 18:23N 37°00' W 008°19'4 9.5
2017-Sep-11 17:59N 37°02' W 008°23'6 9.6
2017-Sep-11 17:20N 37°05' W 008°30'3 0.5
2017-Sep-11 10:58N 37°08' W 008°32'0 0.0
2017-Sep-11 09:04N 37°08' W 008°32'0 0.3
2017-Sep-11 08:45N 37°08' W 008°32'0 0.2
2017-Sep-11 08:25N 37°08' W 008°32'0 0.0
2017-Sep-11 07:54N 37°08' W 008°32'1 2.2
2017-Sep-11 07:30N 37°07' W 008°32'5 9.8
2017-Sep-11 07:00N 37°03' W 008°35'611.3
2017-Sep-11 06:29N 36°59' W 008°41'5 9.6
2017-Sep-11 06:00N 36°56' W 008°45'7 9.7
2017-Sep-11 05:19N 36°52' W 008°52'3 9.5
2017-Sep-11 05:00N 36°51' W 008°55'29 7.8
2017-Sep-11 01:19N 37°15' W 009°15'3 8.6
2017-Sep-11 01:00N 37°17' W 009°15'5 9.8
2017-Sep-11 00:30N 37°22' W 009°16'510.5
2017-Sep-11 00:00N 37°27' W 009°16'5 9.4
2017-Sep-10 23:31N 37°32' W 009°17'611.8
2017-Sep-10 23:00N 37°38' W 009°18'510.8
2017-Sep-10 22:30N 37°43' W 009°18'5 9.8
2017-Sep-10 22:01N 37°48' W 009°18'5 9.8
2017-Sep-10 21:30N 37°53' W 009°19'  
Track history (hours):
 
Tides and Currents Weather Stations Pressure Air Temp Water Temp Dewpoint Dewpoint Depression Visibility Wind Speed Wind Dir Waves Ship Positions

Seabourn Pride

Operator: Cunard Seabourn

Last reported at 2017-Sep-20 21:00 UTC. Time now 2017-Sep-21 01:30 UTC.
Position N 42°60' E 006°34'.

Length 134 m; draft 5.7 m.

Type: Passenger vessel. MMSI: 311084000.

Date/timePositionNaut miles runAvg speedWind from/ knotsBaromVisibWave heightAir tempDewpointWater temp
2017-Sep-20 21:00N 42°60' E 006°34'4 7.0
2017-Sep-20 20:30N 42°58' E 006°31'5 7.1
2017-Sep-20 19:52N 42°57' E 006°25'4 9.9
2017-Sep-20 19:30N 42°56' E 006°20'18 9.4
2017-Sep-20 17:35N 43°05' E 005°58'1 9.1
2017-Sep-20 17:27N 43°05' E 005°56'2 1.1
2017-Sep-20 15:54N 43°07' E 005°56'0 0.0
2017-Sep-20 15:30N 43°07' E 005°56'0 0.0
2017-Sep-20 15:00N 43°07' E 005°56'34 2.4
2017-Sep-20 00:59N 42°49' E 005°17'510.6
2017-Sep-20 00:30N 42°48' E 005°10'510.7
2017-Sep-20 00:00N 42°47' E 005°03'510.9
2017-Sep-19 23:30N 42°46' E 004°55'711.0
2017-Sep-19 22:54N 42°45' E 004°47'511.1
2017-Sep-19 22:27N 42°44' E 004°40'511.2
2017-Sep-19 22:00N 42°43' E 004°33'711.3
2017-Sep-19 21:25N 42°42' E 004°24'142 3.2
2017-Sep-18 01:27N 40°58' E 002°14'510.4
2017-Sep-18 01:00N 40°53' E 002°14'510.5
2017-Sep-18 00:29N 40°48' E 002°15'510.2
2017-Sep-18 00:00N 40°43' E 002°15'510.1
2017-Sep-17 23:30N 40°38' E 002°15'510.1
2017-Sep-17 23:00N 40°33' E 002°15'510.1
2017-Sep-17 22:30N 40°28' E 002°15'510.0
2017-Sep-17 22:00N 40°23' E 002°15'5 9.9
2017-Sep-17 21:30N 40°18' E 002°15'510.1
2017-Sep-17 21:00N 40°13' E 002°16'510.0
2017-Sep-17 20:30N 40°08' E 002°16'510.0
2017-Sep-17 20:00N 40°03' E 002°16'510.1
2017-Sep-17 19:30N 39°58' E 002°16'510.9
2017-Sep-17 19:01N 39°52' E 002°16'611.1
2017-Sep-17 18:30N 39°47' E 002°16'611.4
2017-Sep-17 18:01N 39°41' E 002°16'611.6
2017-Sep-17 17:30N 39°35' E 002°17'510.8
2017-Sep-17 17:01N 39°31' E 002°21'611.2
2017-Sep-17 16:30N 39°27' E 002°26'5 9.7
2017-Sep-17 16:00N 39°27' E 002°33'510.7
2017-Sep-17 15:30N 39°31' E 002°37'2 4.2
2017-Sep-17 14:58N 39°33' E 002°38'0 0.0
2017-Sep-17 14:25N 39°33' E 002°38'0 0.0
2017-Sep-17 13:58N 39°33' E 002°38'0 0.0
2017-Sep-17 13:30N 39°33' E 002°38'0 0.0
2017-Sep-17 13:00N 39°33' E 002°38'0 0.0
2017-Sep-17 12:30N 39°33' E 002°38'0 0.0
2017-Sep-17 12:00N 39°33' E 002°38'0 0.0
2017-Sep-17 11:30N 39°33' E 002°38'0 0.0
2017-Sep-17 11:00N 39°33' E 002°38'0 0.0
2017-Sep-17 10:30N 39°33' E 002°38'0 0.0
2017-Sep-17 10:00N 39°33' E 002°38'0 0.0
2017-Sep-17 09:30N 39°33' E 002°38'0 0.0
2017-Sep-17 09:00N 39°33' E 002°38'0 0.0
2017-Sep-17 08:30N 39°33' E 002°38'0 0.0
2017-Sep-17 08:00N 39°33' E 002°38'0 0.0
2017-Sep-17 07:31N 39°33' E 002°38'0 0.0
2017-Sep-17 07:00N 39°33' E 002°38'0 0.0
2017-Sep-17 06:30N 39°33' E 002°38'0 0.0
2017-Sep-17 06:00N 39°33' E 002°38'0 0.0
2017-Sep-17 05:30N 39°33' E 002°38'1 2.0
2017-Sep-17 05:00N 39°32' E 002°39'4 8.3
2017-Sep-17 04:30N 39°28' E 002°37'4 8.8
2017-Sep-17 04:00N 39°25' E 002°34'5 9.2
2017-Sep-17 03:30N 39°21' E 002°30'5 9.2
2017-Sep-17 03:00N 39°17' E 002°27'5 9.4
2017-Sep-17 02:30N 39°14' E 002°23'5 9.4
2017-Sep-17 02:00N 39°10' E 002°19'5 9.8
2017-Sep-17 01:29N 39°06' E 002°15'5 9.8
2017-Sep-17 00:59N 39°02' E 002°11'5 9.8
2017-Sep-17 00:30N 38°59' E 002°07'5 9.6
2017-Sep-17 00:00N 38°55' E 002°03'5 9.4
2017-Sep-16 23:30N 38°51' E 001°59'5 9.5
2017-Sep-16 22:58N 38°47' E 001°55'15611.3
2017-Sep-16 09:06N 37°11' W 000°42'111.5
2017-Sep-16 09:00N 37°11' W 000°43'  
2017-Sep-13 20:36N 36°06' W 005°18'7 0.7
2017-Sep-13 10:18N 36°01' W 005°24'3 9.3
2017-Sep-13 09:58N 35°58' W 005°26'130 3.5
2017-Sep-11 20:36N 36°52' W 007°52'410.7
2017-Sep-11 20:12N 36°53' W 007°58'210.7
2017-Sep-11 19:58N 36°53' W 008°01'710.4
2017-Sep-11 19:19N 36°56' W 008°08'610.4
2017-Sep-11 18:43N 36°59' W 008°15'3 9.4
2017-Sep-11 18:23N 37°00' W 008°19'4 9.5
2017-Sep-11 17:59N 37°02' W 008°23'6 9.6
2017-Sep-11 17:20N 37°05' W 008°30'3 0.5
2017-Sep-11 10:58N 37°08' W 008°32'0 0.0
2017-Sep-11 09:04N 37°08' W 008°32'0 0.3
2017-Sep-11 08:45N 37°08' W 008°32'0 0.2
2017-Sep-11 08:25N 37°08' W 008°32'0 0.0
2017-Sep-11 07:54N 37°08' W 008°32'1 2.2
2017-Sep-11 07:30N 37°07' W 008°32'5 9.8
2017-Sep-11 07:00N 37°03' W 008°35'611.3
2017-Sep-11 06:29N 36°59' W 008°41'5 9.6
2017-Sep-11 06:00N 36°56' W 008°45'7 9.7
2017-Sep-11 05:19N 36°52' W 008°52'3 9.5
2017-Sep-11 05:00N 36°51' W 008°55'29 7.8
2017-Sep-11 01:19N 37°15' W 009°15'3 8.6
2017-Sep-11 01:00N 37°17' W 009°15'5 9.8
2017-Sep-11 00:30N 37°22' W 009°16'510.5
2017-Sep-11 00:00N 37°27' W 009°16'5 9.4
2017-Sep-10 23:31N 37°32' W 009°17'611.8
2017-Sep-10 23:00N 37°38' W 009°18'510.8
2017-Sep-10 22:30N 37°43' W 009°18'5 9.8
2017-Sep-10 22:01N 37°48' W 009°18'5 9.8
2017-Sep-10 21:30N 37°53' W 009°19'  

Dump ship's entire track history